Time;durP1;ratioP1;P1;durP2;ratioP2;P2;SDS_P1;SDS_P2;PMS_P1;PMS_P2;Temp;Humidity;BMP_temperature;BMP_pressure;BME280_temperature;BME280_humidity;BME280_pressure;Samples;Min_cycle;Max_cycle;Signal;HPM_P1;HPM_P2
2021/11/24 00:00:25;;;;;;;31.50;17.02;;;;;;;3.40;72.44;98023.33;1751133;80;25787;-87
2021/11/24 00:02:54;;;;;;;31.77;17.85;;;;;;;3.40;72.49;98023.33;1794699;78;25731;-87
2021/11/24 00:05:20;;;;;;;32.70;18.50;;;;;;;3.39;72.57;98025.65;1778399;79;26475;-87
2021/11/24 00:07:47;;;;;;;35.38;19.98;;;;;;;3.38;72.65;98025.33;1791782;78;25571;-87
2021/11/24 00:10:16;;;;;;;31.25;18.52;;;;;;;3.38;72.72;98024.00;1791705;78;27887;-87
2021/11/24 00:12:43;;;;;;;30.57;17.62;;;;;;;3.33;72.70;98027.60;1791690;78;25743;-87
2021/11/24 00:15:11;;;;;;;28.35;17.92;;;;;;;3.34;72.77;98038.62;1791787;78;26390;-86
2021/11/24 00:17:38;;;;;;;28.20;16.97;;;;;;;3.37;72.92;98034.33;1791793;78;25677;-87
2021/11/24 00:20:08;;;;;;;32.95;18.48;;;;;;;3.29;72.92;98028.39;1791807;78;25714;-86
2021/11/24 00:22:35;;;;;;;34.70;18.55;;;;;;;3.24;72.94;98032.86;1791752;79;27371;-86
2021/11/24 00:25:01;;;;;;;32.23;18.37;;;;;;;3.26;73.08;98034.86;1791630;78;25461;-86
2021/11/24 00:27:28;;;;;;;29.65;17.17;;;;;;;3.29;73.08;98033.73;1791861;78;25717;-87
2021/11/24 00:29:55;;;;;;;32.23;18.87;;;;;;;3.30;73.09;98035.90;1791719;78;25743;-86
2021/11/24 00:32:21;;;;;;;31.70;17.85;;;;;;;3.31;73.16;98029.08;1791780;80;25678;-87
2021/11/24 00:34:48;;;;;;;34.58;19.80;;;;;;;3.30;73.13;98026.06;1791856;78;28055;-86
2021/11/24 00:37:15;;;;;;;34.70;20.82;;;;;;;3.30;73.15;98026.56;1791777;78;25806;-87
2021/11/24 00:39:42;;;;;;;32.08;18.82;;;;;;;3.31;73.15;98029.58;1791806;78;25796;-86
2021/11/24 00:42:08;;;;;;;29.10;17.48;;;;;;;3.33;73.24;98032.94;1791480;80;25779;-86
2021/11/24 00:44:35;;;;;;;25.95;16.05;;;;;;;3.32;73.29;98032.59;1791640;78;25709;-85
2021/11/24 00:47:02;;;;;;;28.17;17.20;;;;;;;3.24;73.36;98032.86;1791952;79;27342;-85
2021/11/24 00:49:29;;;;;;;33.55;18.85;;;;;;;3.22;73.45;98027.33;1791738;80;25708;-85
2021/11/24 00:51:55;;;;;;;31.93;18.40;;;;;;;3.23;73.46;98030.34;1791756;78;25685;-85
2021/11/24 00:54:22;;;;;;;33.53;18.62;;;;;;;3.23;73.51;98031.19;1791894;78;25748;-85
2021/11/24 00:56:48;;;;;;;33.75;18.70;;;;;;;3.23;73.55;98035.19;1791824;78;25745;-85
2021/11/24 00:59:15;;;;;;;30.45;17.77;;;;;;;3.24;73.58;98035.53;1791592;78;27433;-85
2021/11/24 01:01:41;;;;;;;31.35;17.82;;;;;;;3.21;73.66;98034.48;1791593;80;25749;-86
2021/11/24 01:04:08;;;;;;;33.38;17.57;;;;;;;3.19;73.67;98040.47;1791767;78;25645;-86
2021/11/24 01:06:35;;;;;;;37.73;19.57;;;;;;;3.22;73.71;98040.17;1791740;80;26317;-85
2021/11/24 01:09:01;;;;;;;38.75;20.32;;;;;;;3.23;73.73;98035.68;1791770;78;25710;-85
2021/11/24 01:11:28;;;;;;;35.88;21.27;;;;;;;3.23;73.78;98036.52;1791700;78;28240;-85
2021/11/24 01:13:54;;;;;;;31.80;19.60;;;;;;;3.24;73.78;98032.86;1791607;80;25770;-86
2021/11/24 01:16:21;;;;;;;33.95;19.40;;;;;;;3.25;73.80;98037.21;1791811;78;25720;-85
2021/11/24 01:18:47;;;;;;;32.65;18.50;;;;;;;3.28;73.82;98033.87;1791742;78;25823;-85
2021/11/24 01:21:14;;;;;;;29.72;17.20;;;;;;;3.29;73.81;98034.22;1791839;79;25400;-85
2021/11/24 01:23:40;;;;;;;30.08;16.77;;;;;;;3.29;73.86;98026.22;1791773;80;28102;-85
2021/11/24 01:26:07;;;;;;;31.82;18.48;;;;;;;3.25;73.93;98030.55;1791441;78;25740;-85
2021/11/24 01:28:34;;;;;;;28.07;17.23;;;;;;;3.28;74.01;98032.54;1791668;78;26167;-86
2021/11/24 01:31:00;;;;;;;34.25;17.35;;;;;;;3.28;74.03;98025.87;1791632;78;25773;-85
2021/11/24 01:33:27;;;;;;;32.93;17.85;;;;;;;3.25;74.09;98021.20;1791726;78;25649;-85
2021/11/24 01:35:53;;;;;;;35.90;17.92;;;;;;;3.21;74.15;98013.64;1791671;78;27412;-85
2021/11/24 01:38:20;;;;;;;31.45;17.75;;;;;;;3.21;74.22;98021.15;1791710;78;25637;-85
2021/11/24 01:40:46;;;;;;;30.97;18.50;;;;;;;3.19;74.22;98020.45;1791779;78;25799;-85
2021/11/24 01:43:13;;;;;;;33.92;18.62;;;;;;;3.20;74.28;98019.96;1791662;78;25846;-85
2021/11/24 01:45:40;;;;;;;31.07;17.48;;;;;;;3.19;74.34;98019.13;1791790;80;25780;-85
2021/11/24 01:48:08;;;;;;;32.60;18.00;;;;;;;3.19;74.34;98021.79;1791727;78;26771;-85
2021/11/24 01:50:35;;;;;;;33.67;18.32;;;;;;;3.16;74.39;98012.74;1791618;78;25709;-85
2021/11/24 01:53:02;;;;;;;32.42;19.27;;;;;;;3.16;74.41;98020.75;1791689;78;25702;-86
2021/11/24 01:55:29;;;;;;;40.40;20.37;;;;;;;3.17;74.52;98022.92;1791744;78;25830;-85
2021/11/24 01:57:56;;;;;;;36.98;19.50;;;;;;;3.17;74.55;98024.25;1791827;78;26016;-85
2021/11/24 02:00:30;;;;;;;30.45;18.57;;;;;;;3.19;74.63;98029.80;1791449;78;27992;-85
2021/11/24 02:02:58;;;;;;;31.55;17.77;;;;;;;3.19;74.64;98023.62;1819457;77;25750;-85
2021/11/24 02:05:25;;;;;;;34.63;17.92;;;;;;;3.16;74.71;98024.75;1819717;77;25751;-86
2021/11/24 02:07:51;;;;;;;32.00;18.85;;;;;;;3.16;74.70;98022.08;1819711;77;25759;-86
2021/11/24 02:10:21;;;;;;;33.28;18.57;;;;;;;3.16;74.76;98028.75;1819963;77;25648;-86
2021/11/24 02:12:48;;;;;;;38.98;20.92;;;;;;;3.16;74.81;98028.75;1819434;78;27359;-86
2021/11/24 02:15:16;;;;;;;35.08;19.82;;;;;;;3.15;74.85;98027.56;1819643;77;25713;-86
2021/11/24 02:17:42;;;;;;;41.15;22.98;;;;;;;3.15;74.85;98016.40;1819721;77;25838;-86
2021/11/24 02:20:16;;;;;;;40.75;22.45;;;;;;;3.12;74.87;98014.05;1819806;77;26397;-86
2021/11/24 02:22:42;;;;;;;37.35;21.23;;;;;;;3.13;74.92;98017.06;1819821;77;25823;-86
2021/11/24 02:25:10;;;;;;;40.98;21.48;;;;;;;3.12;75.02;98010.05;1819474;77;27398;-86
2021/11/24 02:27:36;;;;;;;36.13;20.17;;;;;;;3.11;75.03;98011.03;1778327;79;25702;-87
2021/11/24 02:30:04;;;;;;;30.80;18.15;;;;;;;3.10;75.08;98011.19;1791727;80;25741;-86
2021/11/24 02:32:30;;;;;;;29.85;17.30;;;;;;;3.11;75.11;98015.04;1791691;79;25687;-86
2021/11/24 02:34:57;;;;;;;29.27;17.07;;;;;;;3.12;75.16;98014.05;1791756;78;25748;-87
2021/11/24 02:37:24;;;;;;;28.62;17.67;;;;;;;3.11;75.19;98008.38;1791710;78;27507;-86
2021/11/24 02:39:50;;;;;;;34.88;17.30;;;;;;;3.09;75.20;98008.17;1781932;78;25665;-86
2021/11/24 02:42:17;;;;;;;31.60;19.10;;;;;;;3.09;75.29;98013.50;1791666;78;25748;-86
2021/11/24 02:44:43;;;;;;;31.02;18.57;;;;;;;3.11;75.33;98009.70;1791661;78;26280;-85
2021/11/24 02:47:14;;;;;;;33.10;20.12;;;;;;;3.09;75.35;98009.01;1791602;78;25812;-86
2021/11/24 02:49:45;;;;;;;41.98;19.95;;;;;;;3.12;75.44;98010.55;1791573;78;28379;-86
2021/11/24 02:52:13;;;;;;;32.00;18.98;;;;;;;3.12;75.44;98014.05;1791231;78;25705;-85
2021/11/24 02:54:44;;;;;;;32.90;19.12;;;;;;;3.11;75.45;98011.53;1791626;78;25721;-85
2021/11/24 02:57:10;;;;;;;33.13;18.05;;;;;;;3.10;75.54;98010.69;1779388;80;25815;-85
2021/11/24 02:59:37;;;;;;;28.17;17.27;;;;;;;3.11;75.57;98007.53;1791483;78;25761;-85
2021/11/24 03:02:04;;;;;;;29.27;16.35;;;;;;;3.13;75.57;98008.23;1791620;78;27539;-85
2021/11/24 03:04:32;;;;;;;28.65;17.32;;;;;;;3.15;75.57;98008.89;1791621;78;25677;-85
2021/11/24 03:07:01;;;;;;;27.77;16.17;;;;;;;3.05;75.55;97992.95;1791530;78;25845;-85
2021/11/24 03:09:28;;;;;;;29.32;16.55;;;;;;;3.16;75.60;98005.23;1791909;78;25749;-85
2021/11/24 03:11:56;;;;;;;28.23;16.55;;;;;;;3.17;75.58;98005.09;1791802;80;25662;-85
2021/11/24 03:14:23;;;;;;;29.50;15.58;;;;;;;3.19;75.61;98001.78;1796553;77;27428;-85
2021/11/24 03:16:49;;;;;;;29.75;18.00;;;;;;;3.21;75.69;98009.14;1791823;78;25784;-85
2021/11/24 03:19:16;;;;;;;32.98;17.32;;;;;;;3.18;75.64;98001.92;1791862;78;25555;-85
2021/11/24 03:21:42;;;;;;;28.80;17.37;;;;;;;3.19;75.66;98008.45;1791851;78;25722;-85
2021/11/24 03:24:09;;;;;;;30.62;17.95;;;;;;;3.21;75.64;98003.81;1791855;78;25771;-85
2021/11/24 03:26:35;;;;;;;30.48;18.23;;;;;;;3.23;75.66;98001.83;1791715;78;27520;-85
2021/11/24 03:29:02;;;;;;;32.65;17.20;;;;;;;3.20;75.61;98003.95;1791793;80;25679;-85
2021/11/24 03:31:29;;;;;;;33.60;18.00;;;;;;;3.20;75.64;98002.13;1791757;78;25766;-85
2021/11/24 03:33:55;;;;;;;32.08;17.02;;;;;;;3.20;75.71;98004.80;1791938;78;25936;-85
2021/11/24 03:36:22;;;;;;;29.60;16.85;;;;;;;3.19;75.66;98009.78;1791893;78;25707;-85
2021/11/24 03:38:48;;;;;;;28.70;16.80;;;;;;;3.19;75.69;98004.45;1791724;78;27976;-85
2021/11/24 03:41:15;;;;;;;30.10;17.20;;;;;;;3.19;75.70;98003.11;1791580;78;26366;-85
2021/11/24 03:43:42;;;;;;;30.00;18.23;;;;;;;3.19;75.71;98015.12;1791396;78;25717;-85
2021/11/24 03:46:08;;;;;;;31.55;19.80;;;;;;;3.16;75.75;98003.90;1791754;78;26446;-85
2021/11/24 03:48:35;;;;;;;29.87;20.15;;;;;;;3.14;75.76;98006.72;1791888;80;25718;-84
2021/11/24 03:51:01;;;;;;;29.20;18.80;;;;;;;3.11;75.76;97999.03;1789851;78;28086;-85
2021/11/24 03:53:28;;;;;;;31.70;19.60;;;;;;;3.13;75.83;98001.06;1791711;78;25218;-85
2021/11/24 03:55:55;;;;;;;30.23;18.85;;;;;;;3.10;75.83;98000.52;1791866;79;25218;-85
2021/11/24 03:58:21;;;;;;;31.42;18.15;;;;;;;3.11;75.82;97996.86;1791841;78;25738;-85
2021/11/24 04:00:48;;;;;;;24.37;15.88;;;;;;;3.10;75.84;97996.52;1797149;78;25772;-84
2021/11/24 04:03:15;;;;;;;28.15;17.07;;;;;;;3.11;75.77;97993.70;1803727;78;26930;-84
2021/11/24 04:05:41;;;;;;;29.50;17.10;;;;;;;3.15;75.72;97994.22;1760256;80;26477;-85
2021/11/24 04:08:08;;;;;;;26.05;16.97;;;;;;;3.14;75.64;97993.91;1803568;78;26334;-85
2021/11/24 04:10:34;;;;;;;24.20;16.00;;;;;;;3.13;75.62;97986.39;1803580;78;25794;-85
2021/11/24 04:13:01;;;;;;;25.65;15.90;;;;;;;3.11;75.65;97988.36;1760632;80;25891;-84
2021/11/24 04:15:28;;;;;;;27.35;16.07;;;;;;;3.07;75.64;97987.47;1803636;78;27417;-85
2021/11/24 04:17:54;;;;;;;22.10;14.23;;;;;;;3.01;75.66;97982.26;1760416;80;25712;-84
2021/11/24 04:20:21;;;;;;;25.02;15.58;;;;;;;3.01;75.78;97985.42;1803655;78;25796;-85
2021/11/24 04:22:48;;;;;;;20.68;13.43;;;;;;;3.02;75.82;97977.23;1803247;78;25807;-84
2021/11/24 04:25:17;;;;;;;25.68;14.63;;;;;;;3.00;75.80;97979.73;1760314;80;25917;-85
2021/11/24 04:27:45;;;;;;;25.50;15.03;;;;;;;3.00;75.81;97975.25;1803214;78;27456;-86
2021/11/24 04:30:13;;;;;;;26.23;14.75;;;;;;;3.02;75.81;97974.57;1803444;78;25781;-84
2021/11/24 04:32:40;;;;;;;27.85;14.85;;;;;;;3.02;75.80;97973.23;1803738;78;25926;-85
2021/11/24 04:35:08;;;;;;;27.32;15.45;;;;;;;2.98;75.77;97974.55;1760485;80;26015;-85
2021/11/24 04:37:35;;;;;;;26.10;14.85;;;;;;;2.98;75.81;97961.22;1803605;78;26500;-84
2021/11/24 04:40:02;;;;;;;26.27;15.40;;;;;;;3.01;75.79;97959.59;1760457;80;27445;-84
2021/11/24 04:42:29;;;;;;;25.17;14.20;;;;;;;3.04;75.80;97958.42;1803353;78;25778;-85
2021/11/24 04:44:55;;;;;;;24.72;15.20;;;;;;;3.05;75.73;97960.95;1760402;80;25828;-85
2021/11/24 04:47:22;;;;;;;25.17;15.38;;;;;;;3.04;75.67;97953.93;1803526;78;26342;-85
2021/11/24 04:49:49;;;;;;;24.20;15.65;;;;;;;3.02;75.59;97945.23;1803701;78;25750;-85
2021/11/24 04:52:15;;;;;;;24.45;14.43;;;;;;;2.96;75.53;97945.86;1760406;80;27398;-86
2021/11/24 04:54:42;;;;;;;25.55;15.88;;;;;;;2.94;75.55;97939.83;1803489;79;25689;-85
2021/11/24 04:57:09;;;;;;;26.35;15.15;;;;;;;2.93;75.48;97941.30;1760308;80;25725;-85
2021/11/24 04:59:36;;;;;;;24.70;14.15;;;;;;;2.89;75.48;97941.63;1803566;78;25731;-85
2021/11/24 05:02:04;;;;;;;22.52;13.78;;;;;;;2.87;75.37;97946.27;1765009;79;26424;-85
2021/11/24 05:04:30;;;;;;;26.70;15.43;;;;;;;2.85;75.28;97947.41;1759705;80;27447;-85
2021/11/24 05:06:57;;;;;;;27.37;15.05;;;;;;;2.77;75.09;97948.66;1761565;80;25699;-85
2021/11/24 05:09:23;;;;;;;24.27;13.78;;;;;;;2.70;75.06;97949.73;1761757;80;25245;-84
2021/11/24 05:11:51;;;;;;;24.23;14.18;;;;;;;2.65;75.05;97950.69;1761754;80;25736;-84
2021/11/24 05:14:24;;;;;;;23.73;14.60;;;;;;;2.59;75.15;97945.93;1761729;80;26293;-84
2021/11/24 05:16:48;;;;;;;23.92;15.00;;;;;;;2.57;75.31;97951.06;1761077;79;27439;-84
2021/11/24 05:19:19;;;;;;;21.65;14.70;;;;;;;2.55;75.41;97945.88;1761607;80;25762;-84
2021/11/24 05:21:44;;;;;;;24.00;14.60;;;;;;;2.53;75.40;97946.54;1761199;80;25652;-84
2021/11/24 05:24:11;;;;;;;24.60;15.10;;;;;;;2.49;75.49;97942.48;1761752;81;25805;-84
2021/11/24 05:26:38;;;;;;;25.70;14.73;;;;;;;2.51;75.62;97949.34;1761882;80;25794;-84
2021/11/24 05:29:04;;;;;;;27.40;16.00;;;;;;;2.54;75.68;97946.36;1761411;81;28136;-84
2021/11/24 05:31:31;;;;;;;25.90;15.38;;;;;;;2.54;75.76;97945.52;1761622;80;25801;-85
2021/11/24 05:33:57;;;;;;;24.25;14.78;;;;;;;2.54;75.83;97945.03;1746570;79;25717;-84
2021/11/24 05:36:24;;;;;;;22.32;15.13;;;;;;;2.57;75.84;97947.06;1764877;79;25751;-84
2021/11/24 05:38:50;;;;;;;26.40;16.42;;;;;;;2.46;75.76;97949.43;1759573;80;25837;-84
2021/11/24 05:41:17;;;;;;;58.05;38.10;;;;;;;2.39;75.87;97951.02;1761770;80;27352;-84
2021/11/24 05:43:45;;;;;;;61.23;40.38;;;;;;;2.36;76.05;97952.14;1761391;80;25822;-84
2021/11/24 05:46:22;;;;;;;52.33;29.98;;;;;;;2.35;76.14;97957.13;1761657;80;25752;-85
2021/11/24 05:48:46;;;;;;;40.08;26.87;;;;;;;2.34;76.24;97958.11;1760809;80;25942;-84
2021/11/24 05:51:15;;;;;;;35.52;22.48;;;;;;;2.34;76.29;97959.44;1761674;80;25270;-85
2021/11/24 05:53:41;;;;;;;40.75;26.48;;;;;;;2.30;76.38;97959.37;1766239;79;27442;-85
2021/11/24 05:56:08;;;;;;;49.13;30.00;;;;;;;2.31;76.51;97953.06;1761613;81;25806;-84
2021/11/24 05:58:35;;;;;;;44.58;29.48;;;;;;;2.33;76.52;97956.42;1761695;80;25284;-86
2021/11/24 06:01:01;;;;;;;43.25;27.65;;;;;;;2.36;76.54;97960.63;1761583;80;26399;-85
2021/11/24 06:03:28;;;;;;;48.10;29.20;;;;;;;2.37;76.60;97960.48;1761694;80;25719;-85
2021/11/24 06:05:54;;;;;;;30.55;19.32;;;;;;;2.39;76.66;97961.19;1761845;80;28232;-85
2021/11/24 06:08:21;;;;;;;32.33;19.77;;;;;;;2.34;76.63;97958.59;1761713;81;25873;-85
2021/11/24 06:10:48;;;;;;;35.05;22.02;;;;;;;2.29;76.62;97956.88;1761795;80;25758;-85
2021/11/24 06:13:15;;;;;;;29.98;20.30;;;;;;;2.29;76.71;97955.06;1761710;81;26294;-85
2021/11/24 06:15:41;;;;;;;31.73;21.50;;;;;;;2.32;76.78;97962.73;1761791;80;25230;-85
2021/11/24 06:18:09;;;;;;;34.95;22.05;;;;;;;2.36;76.84;97957.97;1761710;81;27916;-84
2021/11/24 06:20:36;;;;;;;34.08;22.25;;;;;;;2.36;76.82;97965.47;1761618;80;25746;-85
2021/11/24 06:23:03;;;;;;;36.58;23.45;;;;;;;2.37;76.78;97963.15;1761751;80;25781;-85
2021/11/24 06:25:29;;;;;;;35.10;23.42;;;;;;;2.37;76.82;97964.97;1761613;81;26347;-85
2021/11/24 06:27:56;;;;;;;38.40;25.90;;;;;;;2.38;76.88;97967.50;1761370;80;25690;-85
2021/11/24 06:30:24;;;;;;;42.83;26.20;;;;;;;2.40;76.89;97968.19;1761651;80;28077;-85
2021/11/24 06:32:50;;;;;;;40.85;26.75;;;;;;;2.43;76.91;97979.87;1761463;80;25773;-85
2021/11/24 06:35:17;;;;;;;53.38;34.60;;;;;;;2.45;76.96;97984.56;1761623;80;25837;-85
2021/11/24 06:37:44;;;;;;;50.45;29.50;;;;;;;2.47;76.98;97979.93;1761713;80;25734;-85
2021/11/24 06:40:12;;;;;;;43.80;27.87;;;;;;;2.50;76.95;97982.31;1761812;80;25244;-85
2021/11/24 06:42:39;;;;;;;44.35;27.17;;;;;;;2.53;76.91;97986.02;1761688;79;28129;-85
2021/11/24 06:45:07;;;;;;;49.20;27.27;;;;;;;2.55;76.95;97981.84;1761869;80;26343;-85
2021/11/24 06:47:35;;;;;;;43.98;27.02;;;;;;;2.58;77.00;97991.38;1761742;80;26760;-85
2021/11/24 06:50:03;;;;;;;48.30;28.02;;;;;;;2.60;77.01;97992.08;1761745;80;26409;-85
2021/11/24 06:52:30;;;;;;;50.73;29.30;;;;;;;2.63;77.03;97989.13;1761829;81;25794;-84
2021/11/24 06:54:56;;;;;;;56.18;29.87;;;;;;;2.65;77.07;97988.49;1761902;79;28065;-85
2021/11/24 06:57:24;;;;;;;52.40;28.87;;;;;;;2.68;77.01;97990.84;1761812;80;25775;-85
2021/11/24 06:59:50;;;;;;;51.30;31.15;;;;;;;2.69;77.02;97987.19;1761870;81;25690;-84
2021/11/24 07:02:17;;;;;;;48.80;31.42;;;;;;;2.70;77.03;97990.20;1761583;80;25713;-84
2021/11/24 07:04:43;;;;;;;48.90;29.77;;;;;;;2.73;77.04;97989.91;1761801;80;26330;-85
2021/11/24 07:07:10;;;;;;;52.08;32.05;;;;;;;2.77;77.03;97988.64;1761940;80;26866;-84
2021/11/24 07:09:37;;;;;;;51.23;32.13;;;;;;;2.80;77.04;97990.98;1761769;81;25801;-84
2021/11/24 07:12:04;;;;;;;58.50;33.67;;;;;;;2.83;77.07;97993.37;1761919;80;25826;-84
2021/11/24 07:14:31;;;;;;;58.23;33.67;;;;;;;2.85;77.08;97992.23;1761909;81;26469;-84
2021/11/24 07:16:59;;;;;;;53.85;30.27;;;;;;;2.89;77.06;97984.78;1761837;81;25793;-84
2021/11/24 07:19:26;;;;;;;45.95;28.40;;;;;;;2.90;76.97;97987.77;1761849;80;27334;-85
2021/11/24 07:21:53;;;;;;;48.50;27.30;;;;;;;2.94;76.92;98005.16;1761775;81;25775;-84
2021/11/24 07:24:21;;;;;;;42.35;26.87;;;;;;;2.95;76.87;97996.17;1761770;81;25762;-84
2021/11/24 07:26:48;;;;;;;43.85;26.17;;;;;;;2.98;76.86;97994.55;1761858;80;25703;-84
2021/11/24 07:29:16;;;;;;;47.33;25.15;;;;;;;3.01;76.86;97996.92;1761733;80;25778;-84
2021/11/24 07:31:43;;;;;;;41.25;24.95;;;;;;;3.04;76.88;97991.27;1761801;81;27351;-84
2021/11/24 07:34:12;;;;;;;41.13;24.75;;;;;;;3.08;76.97;97993.16;1761683;80;25853;-84
2021/11/24 07:36:38;;;;;;;43.23;26.10;;;;;;;3.10;76.89;97992.02;1761652;80;26421;-84
2021/11/24 07:39:05;;;;;;;42.03;27.50;;;;;;;3.14;76.95;97996.05;1761860;80;25723;-84
2021/11/24 07:41:31;;;;;;;42.23;26.17;;;;;;;3.19;76.95;98002.27;1761803;80;25780;-84
2021/11/24 07:43:58;;;;;;;42.13;25.30;;;;;;;3.20;76.97;97991.95;1761917;81;27403;-84
2021/11/24 07:46:25;;;;;;;44.00;26.37;;;;;;;3.24;77.02;97994.17;1761700;80;25900;-85
2021/11/24 07:48:51;;;;;;;43.58;26.68;;;;;;;3.31;77.02;97996.22;1761852;81;25725;-85
2021/11/24 07:51:18;;;;;;;44.90;26.40;;;;;;;3.37;76.95;97996.97;1761791;80;25785;-85
2021/11/24 07:53:46;;;;;;;38.30;25.57;;;;;;;3.39;76.80;97993.12;1761853;80;25862;-85
2021/11/24 07:56:13;;;;;;;35.98;22.35;;;;;;;3.38;76.70;97989.30;1761851;80;27420;-85
2021/11/24 07:58:41;;;;;;;39.05;24.12;;;;;;;3.39;76.69;97985.62;1749102;81;25831;-84
2021/11/24 08:01:10;;;;;;;37.48;24.00;;;;;;;3.43;76.58;97989.67;1761812;80;25277;-85
2021/11/24 08:03:37;;;;;;;36.05;23.67;;;;;;;3.46;76.54;97986.70;1753059;80;25888;-85
2021/11/24 08:06:04;;;;;;;39.00;23.83;;;;;;;3.49;76.63;97985.08;1819914;77;25803;-85
2021/11/24 08:08:31;;;;;;;40.58;24.45;;;;;;;3.55;76.70;97981.78;1819967;77;27529;-85
2021/11/24 08:10:58;;;;;;;39.05;22.15;;;;;;;3.59;76.70;97971.98;1818774;77;25904;-85
2021/11/24 08:13:26;;;;;;;42.45;22.60;;;;;;;3.62;76.58;97966.84;1819787;78;25742;-85
2021/11/24 08:15:53;;;;;;;37.67;22.87;;;;;;;3.63;76.41;97968.48;1819900;77;25969;-84
2021/11/24 08:18:19;;;;;;;40.88;24.82;;;;;;;3.66;76.28;97967.34;1810129;77;25323;-84
2021/11/24 08:20:47;;;;;;;49.88;26.20;;;;;;;3.67;76.21;97969.87;1778129;79;27300;-85
2021/11/24 08:23:13;;;;;;;46.45;25.32;;;;;;;3.70;76.10;97969.56;1774411;78;25914;-85
2021/11/24 08:25:40;;;;;;;52.43;27.20;;;;;;;3.69;75.97;97973.72;1791812;78;26381;-85
2021/11/24 08:28:06;;;;;;;55.65;28.52;;;;;;;3.68;76.00;97964.88;1791571;78;25865;-85
2021/11/24 08:30:33;;;;;;;55.60;29.75;;;;;;;3.73;76.02;97965.75;1791746;78;26444;-86
2021/11/24 08:33:00;;;;;;;51.15;27.30;;;;;;;3.76;75.97;97967.59;1789276;78;28169;-85
2021/11/24 08:35:26;;;;;;;45.78;26.73;;;;;;;3.82;75.99;97966.99;1791750;78;25752;-85
2021/11/24 08:37:53;;;;;;;43.08;25.43;;;;;;;3.87;75.95;97968.68;1806414;77;25807;-85
2021/11/24 08:40:20;;;;;;;46.55;25.90;;;;;;;3.91;75.80;97970.05;1791726;78;26372;-84
2021/11/24 08:42:47;;;;;;;48.70;25.23;;;;;;;3.94;75.66;97972.42;1791840;80;25767;-85
2021/11/24 08:45:14;;;;;;;48.68;28.83;;;;;;;3.98;75.62;97971.09;1791705;78;27455;-85
2021/11/24 08:47:42;;;;;;;46.48;27.60;;;;;;;4.05;75.55;97974.50;1791655;80;25791;-85
2021/11/24 08:50:13;;;;;;;54.65;26.45;;;;;;;4.11;75.46;97972.52;1791233;78;25702;-86
2021/11/24 08:52:40;;;;;;;47.08;26.33;;;;;;;4.13;75.37;97975.88;1776824;78;25736;-86
2021/11/24 08:55:09;;;;;;;47.45;27.10;;;;;;;4.15;75.31;97977.90;1777554;79;25713;-86
2021/11/24 08:57:37;;;;;;;47.65;26.48;;;;;;;4.19;75.28;97975.27;1791680;78;27422;-85
2021/11/24 09:00:12;;;;;;;44.88;27.15;;;;;;;4.23;75.24;97982.78;1791465;78;26243;-86
2021/11/24 09:02:40;;;;;;;48.10;26.10;;;;;;;4.26;75.22;97982.48;1790918;78;26376;-86
2021/11/24 09:05:08;;;;;;;42.08;24.30;;;;;;;4.30;75.09;97976.33;1777108;79;26283;-84
2021/11/24 09:07:35;;;;;;;49.38;27.42;;;;;;;4.28;74.93;97976.98;1797456;78;25513;-85
2021/11/24 09:10:04;;;;;;;41.68;24.25;;;;;;;4.30;75.04;97979.00;1778603;79;27371;-85
2021/11/24 09:12:31;;;;;;;41.90;23.75;;;;;;;4.37;74.97;97976.52;1775911;78;25648;-86
2021/11/24 09:14:58;;;;;;;36.28;22.87;;;;;;;4.42;74.85;97980.91;1791925;78;25739;-85
2021/11/24 09:17:25;;;;;;;36.95;21.12;;;;;;;4.46;74.72;97972.42;1790818;78;25743;-85
2021/11/24 09:19:51;;;;;;;38.45;22.67;;;;;;;4.46;74.56;97967.08;1791828;79;26572;-85
2021/11/24 09:22:18;;;;;;;36.53;21.85;;;;;;;4.49;74.41;97970.74;1791589;78;28397;-85
2021/11/24 09:24:47;;;;;;;37.10;20.88;;;;;;;4.50;74.24;97967.57;1774323;79;25926;-85
2021/11/24 09:27:17;;;;;;;29.72;17.48;;;;;;;4.48;73.98;97959.70;1815662;77;25724;-86
2021/11/24 09:29:48;;;;;;;27.85;17.52;;;;;;;4.50;73.85;97957.72;1819324;78;25672;-86
2021/11/24 09:32:16;;;;;;;32.58;18.95;;;;;;;4.57;73.72;97954.76;1819295;77;25831;-86
2021/11/24 09:34:43;;;;;;;31.65;18.20;;;;;;;4.63;73.63;97955.94;1803504;77;27471;-85
2021/11/24 09:37:10;;;;;;;30.80;14.13;;;;;;;4.69;73.50;97951.30;1818525;77;25751;-86
2021/11/24 09:39:36;;;;;;;58.73;21.37;;;;;;;4.71;72.77;97950.11;1819734;77;26568;-86
2021/11/24 09:42:04;;;;;;;20.10;10.60;;;;;;;4.70;72.48;97956.48;1819794;77;25837;-85
2021/11/24 09:44:33;;;;;;;7.85;5.72;;;;;;;4.67;72.31;97954.12;1819718;78;25778;-85
2021/11/24 09:47:01;;;;;;;4.37;3.37;;;;;;;4.58;71.84;97955.10;1819715;77;26796;-85
2021/11/24 09:49:29;;;;;;;5.15;3.00;;;;;;;4.49;71.61;97948.02;1819844;78;25927;-85
2021/11/24 09:51:57;;;;;;;4.37;3.05;;;;;;;4.49;71.54;97948.02;1819841;77;25707;-85
2021/11/24 09:54:24;;;;;;;3.80;3.00;;;;;;;4.48;71.38;97942.83;1819607;77;25669;-85
2021/11/24 09:56:51;;;;;;;4.30;3.02;;;;;;;4.47;71.46;97944.66;1819678;77;25739;-85
2021/11/24 09:59:18;;;;;;;5.20;3.08;;;;;;;4.54;71.25;97945.72;1813928;77;27345;-85
2021/11/24 10:01:44;;;;;;;4.70;3.60;;;;;;;4.63;71.05;97946.58;1809953;77;26371;-85
2021/11/24 10:04:11;;;;;;;3.30;3.00;;;;;;;4.67;70.85;97944.77;1819396;77;25832;-85
2021/11/24 10:06:42;;;;;;;3.70;3.15;;;;;;;4.75;70.63;97947.12;1819523;78;25787;-86
2021/11/24 10:09:11;;;;;;;4.92;3.45;;;;;;;4.80;70.39;97944.81;1819743;78;25757;-85
2021/11/24 10:11:39;;;;;;;4.60;3.25;;;;;;;4.85;70.22;97941.14;1819869;77;27414;-85
2021/11/24 10:14:06;;;;;;;4.00;2.65;;;;;;;4.88;70.09;97928.78;1819839;77;25727;-85
2021/11/24 10:16:35;;;;;;;4.22;2.50;;;;;;;4.88;69.65;97932.30;1819841;77;25755;-86
2021/11/24 10:19:11;;;;;;;4.17;2.37;;;;;;;4.78;69.51;97925.41;1819760;78;25909;-85
2021/11/24 10:22:04;;;;;;;2.35;2.10;;;;;;;4.73;69.43;97934.41;1819986;77;25768;-85
2021/11/24 10:24:40;;;;;;;3.25;2.35;;;;;;;4.71;69.62;97928.72;1819946;77;27438;-85
2021/11/24 10:27:11;;;;;;;1.90;1.70;;;;;;;4.77;69.74;97919.72;1819768;78;25396;-84
2021/11/24 10:29:41;;;;;;;2.55;1.87;;;;;;;4.84;69.47;97918.90;1819822;77;25719;-85
2021/11/24 10:32:10;;;;;;;3.87;2.30;;;;;;;4.91;69.16;97914.59;1789831;78;26442;-85
2021/11/24 10:34:41;;;;;;;2.45;2.25;;;;;;;4.87;68.90;97911.89;1819654;77;25650;-86
2021/11/24 10:37:16;;;;;;;3.60;2.70;;;;;;;4.81;68.86;97909.89;1819905;77;27404;-85
2021/11/24 10:39:55;;;;;;;2.50;2.30;;;;;;;4.87;69.24;97901.69;1819754;77;25828;-85
2021/11/24 10:42:37;;;;;;;2.52;2.30;;;;;;;4.95;69.04;97897.19;1818053;77;25725;-85
2021/11/24 10:45:21;;;;;;;4.65;2.55;;;;;;;4.97;68.68;97897.87;1798073;77;26723;-84
2021/11/24 10:47:59;;;;;;;3.62;2.20;;;;;;;4.95;68.88;97896.38;1819945;77;25732;-84
2021/11/24 10:50:31;;;;;;;4.00;2.35;;;;;;;5.00;68.78;97890.02;1819850;78;27489;-85
2021/11/24 10:52:57;;;;;;;3.08;2.42;;;;;;;5.08;68.63;97886.01;1819740;77;25885;-84
2021/11/24 10:55:30;;;;;;;3.80;2.70;;;;;;;5.19;68.47;97881.70;1819912;77;25770;-84
2021/11/24 10:58:07;;;;;;;6.12;3.10;;;;;;;5.27;68.26;97881.70;1819847;77;25760;-85
2021/11/24 11:00:44;;;;;;;4.45;3.00;;;;;;;5.35;68.14;97879.02;1819932;77;25719;-85
2021/11/24 11:03:12;;;;;;;7.28;3.52;;;;;;;5.41;67.89;97877.02;1819093;77;27581;-85
2021/11/24 11:05:42;;;;;;;5.20;3.80;;;;;;;5.48;67.81;97878.52;1819468;77;25763;-85
2021/11/24 11:08:12;;;;;;;5.87;3.50;;;;;;;5.50;67.42;97871.16;1819771;78;25753;-84
2021/11/24 11:10:46;;;;;;;4.83;3.85;;;;;;;5.51;67.37;97869.31;1819844;78;25729;-85
2021/11/24 11:13:20;;;;;;;4.40;3.15;;;;;;;5.54;67.20;97863.62;1819804;78;25811;-84
2021/11/24 11:15:54;;;;;;;6.62;4.40;;;;;;;5.49;66.91;97865.97;1819806;78;27473;-85
2021/11/24 11:18:31;;;;;;;5.25;3.85;;;;;;;5.47;67.18;97859.94;1819556;77;26152;-84
2021/11/24 11:21:07;;;;;;;6.40;4.37;;;;;;;5.49;67.39;97861.45;1819795;76;25751;-84
2021/11/24 11:23:48;;;;;;;11.00;7.33;;;;;;;5.51;67.20;97855.92;1819986;77;25755;-85
2021/11/24 11:26:20;;;;;;;18.00;8.15;;;;;;;5.53;66.83;97856.59;1811242;77;32825;-85
2021/11/24 11:28:53;;;;;;;11.95;5.72;;;;;;;5.57;66.87;97849.88;1807219;77;26840;-85